Time;durP1;ratioP1;P1;durP2;ratioP2;P2;SDS_P1;SDS_P2;PMS_P1;PMS_P2;Temp;Humidity;BMP_temperature;BMP_pressure;BME280_temperature;BME280_humidity;BME280_pressure;Samples;Min_cycle;Max_cycle;Signal;HPM_P1;HPM_P2
2022/09/17 00:01:28;;;;;;;0.70;0.70;;;11.30;99.90;;;;;;5010066;28;20211;-86
2022/09/17 00:03:57;;;;;;;1.53;0.83;;;11.30;99.90;;;;;;5001132;28;20192;-87
2022/09/17 00:06:25;;;;;;;1.87;0.70;;;11.30;99.90;;;;;;4999254;28;20241;-87
2022/09/17 00:08:52;;;;;;;2.37;0.80;;;11.20;99.90;;;;;;4994228;28;20186;-86
2022/09/17 00:11:27;;;;;;;2.83;0.80;;;11.20;99.90;;;;;;4997586;28;20280;-86
2022/09/17 00:13:54;;;;;;;0.70;0.70;;;11.20;99.90;;;;;;4997858;28;20179;-87
2022/09/17 00:16:39;;;;;;;0.80;0.80;;;11.20;99.90;;;;;;5005519;28;20175;-87
2022/09/17 00:19:09;;;;;;;1.00;0.80;;;11.10;99.90;;;;;;5012379;28;20189;-86
2022/09/17 00:21:35;;;;;;;2.23;0.90;;;11.10;99.90;;;;;;5003871;28;20235;-86
2022/09/17 00:24:05;;;;;;;1.20;0.80;;;11.10;99.90;;;;;;5000609;28;20189;-86
2022/09/17 00:26:32;;;;;;;1.87;0.87;;;11.10;99.90;;;;;;4987303;28;20239;-86
2022/09/17 00:28:59;;;;;;;0.83;0.83;;;11.10;99.90;;;;;;5004303;28;20262;-86
2022/09/17 00:31:26;;;;;;;2.57;1.00;;;11.10;99.90;;;;;;4990448;28;20206;-87
2022/09/17 00:33:52;;;;;;;2.30;1.00;;;11.10;99.90;;;;;;5003465;28;20450;-87
2022/09/17 00:36:19;;;;;;;2.27;1.00;;;11.10;99.90;;;;;;5000942;28;20183;-86
2022/09/17 00:38:50;;;;;;;1.87;0.97;;;11.10;99.90;;;;;;4995497;28;20190;-86
2022/09/17 00:41:16;;;;;;;1.07;0.80;;;11.10;99.90;;;;;;4994832;28;20203;-87
2022/09/17 00:43:45;;;;;;;2.50;0.90;;;11.20;99.90;;;;;;4999194;28;20184;-86
2022/09/17 00:46:32;;;;;;;2.43;0.93;;;11.20;99.90;;;;;;5000483;28;20220;-87
2022/09/17 00:49:17;;;;;;;1.10;0.90;;;11.20;99.90;;;;;;4996810;28;20190;-87
2022/09/17 00:51:53;;;;;;;1.23;1.13;;;11.20;99.90;;;;;;4998423;28;20206;-86
2022/09/17 00:54:20;;;;;;;3.13;0.90;;;11.20;99.90;;;;;;4991034;28;20212;-87
2022/09/17 00:56:47;;;;;;;2.03;1.00;;;11.20;99.90;;;;;;4997085;28;20245;-86
2022/09/17 00:59:14;;;;;;;2.93;0.97;;;11.30;99.90;;;;;;5007407;28;20218;-86
2022/09/17 01:01:40;;;;;;;1.50;0.90;;;11.30;99.90;;;;;;5006401;28;20193;-87
2022/09/17 01:04:06;;;;;;;1.43;0.90;;;11.30;99.90;;;;;;4999067;28;20188;-87
2022/09/17 01:06:42;;;;;;;1.37;1.00;;;11.30;99.90;;;;;;4999986;28;20185;-86
2022/09/17 01:09:24;;;;;;;1.00;0.87;;;11.30;99.90;;;;;;5000246;28;20320;-87
2022/09/17 01:12:19;;;;;;;1.63;0.80;;;11.30;99.90;;;;;;5016447;28;20206;-86
2022/09/17 01:15:03;;;;;;;1.60;0.80;;;11.30;99.90;;;;;;4987871;28;20211;-86
2022/09/17 01:17:52;;;;;;;1.20;1.00;;;11.20;99.90;;;;;;4999791;28;20184;-87
2022/09/17 01:20:55;;;;;;;1.20;1.10;;;11.20;99.90;;;;;;4986081;28;20181;-86
2022/09/17 01:24:03;;;;;;;1.10;1.00;;;11.20;99.90;;;;;;4999533;28;20177;-86
2022/09/17 01:27:10;;;;;;;3.03;1.10;;;11.10;99.90;;;;;;4918102;29;20197;-86
2022/09/17 01:29:44;;;;;;;1.60;1.10;;;11.10;99.90;;;;;;4902627;29;20199;-86
2022/09/17 01:32:24;;;;;;;2.43;1.20;;;11.20;99.90;;;;;;4995129;28;20300;-87
2022/09/17 01:35:02;;;;;;;3.27;1.00;;;11.20;99.90;;;;;;4996452;28;20197;-87
2022/09/17 01:37:47;;;;;;;1.60;1.10;;;11.20;99.90;;;;;;4980837;28;20623;-86
2022/09/17 01:40:26;;;;;;;1.20;1.10;;;11.20;99.90;;;;;;4989094;28;20180;-86
2022/09/17 01:43:12;;;;;;;1.50;1.10;;;11.30;99.90;;;;;;4988831;28;20185;-86
2022/09/17 01:45:40;;;;;;;4.33;1.40;;;11.30;99.90;;;;;;4997526;28;20204;-86
2022/09/17 01:48:19;;;;;;;2.23;1.20;;;11.30;99.90;;;;;;4990335;28;20181;-87
2022/09/17 01:50:49;;;;;;;1.50;1.40;;;11.30;99.90;;;;;;4999292;28;20204;-86
2022/09/17 01:53:17;;;;;;;1.43;1.10;;;11.30;99.90;;;;;;5009732;28;20168;-86
2022/09/17 01:55:45;;;;;;;1.37;1.20;;;11.30;99.90;;;;;;4985100;28;20197;-87
2022/09/17 01:58:16;;;;;;;2.33;1.40;;;11.20;99.90;;;;;;4996200;28;20181;-87
2022/09/17 02:00:49;;;;;;;1.30;1.20;;;11.20;99.90;;;;;;4982496;28;20192;-87
2022/09/17 02:03:29;;;;;;;2.50;1.57;;;11.10;99.90;;;;;;4995869;28;20181;-87
2022/09/17 02:06:08;;;;;;;2.83;1.30;;;11.10;99.90;;;;;;4996618;28;20203;-86
2022/09/17 02:09:10;;;;;;;2.40;1.30;;;11.10;99.90;;;;;;5004979;28;20202;-87
2022/09/17 02:11:38;;;;;;;1.67;1.30;;;11.10;99.90;;;;;;4986466;28;20208;-86
2022/09/17 02:14:16;;;;;;;1.63;1.20;;;11.10;99.90;;;;;;4989866;28;20173;-86
2022/09/17 02:16:55;;;;;;;1.13;0.93;;;11.20;99.90;;;;;;4997776;28;20176;-86
2022/09/17 02:19:29;;;;;;;1.67;1.30;;;11.20;99.90;;;;;;4998567;28;20174;-86
2022/09/17 02:22:34;;;;;;;1.80;1.17;;;11.20;99.90;;;;;;5002595;28;20173;-86
2022/09/17 02:28:27;;;;;;;1.40;1.30;;;11.30;99.90;;;;;;5003515;28;20192;-86
2022/09/17 02:30:53;;;;;;;1.93;1.30;;;11.30;99.90;;;;;;4988487;28;20246;-86
2022/09/17 02:33:20;;;;;;;1.23;1.10;;;11.30;99.90;;;;;;4989027;28;20175;-86
2022/09/17 02:35:46;;;;;;;2.60;1.23;;;11.30;99.90;;;;;;4983496;28;20200;-86
2022/09/17 02:38:12;;;;;;;1.30;1.20;;;11.30;99.90;;;;;;4995235;28;20177;-86
2022/09/17 02:40:53;;;;;;;1.30;1.20;;;11.30;99.90;;;;;;4996834;28;20188;-86
2022/09/17 02:43:41;;;;;;;1.90;1.40;;;11.30;99.90;;;;;;4979893;28;20234;-87
2022/09/17 02:46:37;;;;;;;2.67;1.30;;;11.30;99.90;;;;;;4996264;28;20240;-87
2022/09/17 02:49:15;;;;;;;1.30;1.20;;;11.30;99.90;;;;;;4980523;28;20255;-87
2022/09/17 02:51:46;;;;;;;1.27;1.13;;;11.20;99.90;;;;;;5000085;28;20206;-86
2022/09/17 02:54:30;;;;;;;1.23;1.13;;;11.20;99.90;;;;;;4998152;28;20159;-86
2022/09/17 02:57:14;;;;;;;1.20;1.10;;;11.10;99.90;;;;;;4991998;28;20204;-86
2022/09/17 02:59:54;;;;;;;3.43;1.00;;;11.20;99.90;;;;;;4989133;28;20187;-86
2022/09/17 03:02:26;;;;;;;1.17;1.07;;;11.10;99.90;;;;;;4997614;28;20178;-87
2022/09/17 03:04:54;;;;;;;1.90;1.30;;;11.10;99.90;;;;;;4991267;28;20191;-86
2022/09/17 03:07:21;;;;;;;2.63;1.33;;;11.00;99.90;;;;;;4982818;28;20187;-86
2022/09/17 03:09:48;;;;;;;3.13;1.40;;;11.00;99.90;;;;;;4987540;28;20177;-86
2022/09/17 03:12:14;;;;;;;1.70;1.20;;;11.00;99.90;;;;;;4979342;28;20203;-86
2022/09/17 03:14:40;;;;;;;2.93;1.30;;;11.10;99.90;;;;;;5012487;28;20210;-86
2022/09/17 03:17:06;;;;;;;2.80;1.50;;;11.10;99.90;;;;;;4998325;28;20646;-86
2022/09/17 03:19:32;;;;;;;1.93;1.30;;;11.00;99.90;;;;;;4997329;28;20184;-86
2022/09/17 03:21:58;;;;;;;3.20;1.20;;;11.00;99.90;;;;;;5002474;28;20187;-86
2022/09/17 03:24:23;;;;;;;4.33;1.57;;;11.00;99.90;;;;;;4997802;28;20203;-86
2022/09/17 03:26:49;;;;;;;3.00;1.63;;;10.90;99.90;;;;;;4995075;28;20667;-86
2022/09/17 03:29:15;;;;;;;1.60;1.27;;;10.90;99.90;;;;;;5001185;28;20180;-86
2022/09/17 03:31:41;;;;;;;4.37;1.20;;;10.80;99.90;;;;;;5001729;28;20200;-86
2022/09/17 03:34:07;;;;;;;1.37;1.27;;;10.80;99.90;;;;;;4993675;28;20178;-86
2022/09/17 03:36:33;;;;;;;1.83;1.20;;;10.70;99.90;;;;;;5001900;28;20233;-86
2022/09/17 03:38:59;;;;;;;2.67;1.37;;;10.70;99.90;;;;;;5010971;28;20172;-86
2022/09/17 03:41:25;;;;;;;2.60;1.10;;;10.60;99.90;;;;;;4992609;28;20191;-86
2022/09/17 03:43:52;;;;;;;2.93;1.30;;;10.60;99.90;;;;;;5002059;28;20224;-87
2022/09/17 03:46:19;;;;;;;1.40;1.20;;;10.60;99.90;;;;;;4984335;28;20233;-86
2022/09/17 03:48:45;;;;;;;2.23;1.30;;;10.60;99.90;;;;;;4990244;28;20180;-87
2022/09/17 03:51:11;;;;;;;2.90;1.30;;;10.60;99.90;;;;;;4993524;28;20202;-87
2022/09/17 03:53:37;;;;;;;1.30;1.20;;;10.50;99.90;;;;;;5010744;28;20185;-86
2022/09/17 03:56:05;;;;;;;1.90;1.23;;;10.50;99.90;;;;;;4997696;28;20263;-86
2022/09/17 03:58:32;;;;;;;3.83;1.10;;;10.50;99.90;;;;;;4987993;28;20194;-86
2022/09/17 04:01:02;;;;;;;1.50;1.30;;;10.50;99.90;;;;;;4998632;28;20247;-86
2022/09/17 04:03:29;;;;;;;1.47;1.13;;;10.40;99.90;;;;;;4999541;28;20197;-86
2022/09/17 04:05:55;;;;;;;2.50;1.10;;;10.40;99.90;;;;;;4986172;28;20201;-86
2022/09/17 04:08:22;;;;;;;6.43;1.60;;;10.40;99.90;;;;;;4997507;28;20270;-86
2022/09/17 04:10:47;;;;;;;3.43;1.30;;;10.40;99.90;;;;;;4999059;28;20203;-86
2022/09/17 04:13:15;;;;;;;1.00;1.00;;;10.40;99.90;;;;;;5009601;28;20173;-86
2022/09/17 04:15:41;;;;;;;2.83;1.23;;;10.40;99.90;;;;;;4997899;28;20203;-87
2022/09/17 04:18:08;;;;;;;1.33;1.23;;;10.40;99.90;;;;;;4984255;28;20175;-86
2022/09/17 04:20:33;;;;;;;2.37;1.23;;;10.30;99.90;;;;;;4997965;28;20184;-86
2022/09/17 04:23:00;;;;;;;1.80;1.30;;;10.30;99.90;;;;;;5007399;28;20259;-86
2022/09/17 04:25:25;;;;;;;3.83;1.30;;;10.30;99.90;;;;;;4997906;28;20204;-86
2022/09/17 04:27:51;;;;;;;2.17;1.37;;;10.30;99.90;;;;;;4984479;28;20207;-86
2022/09/17 04:30:17;;;;;;;1.67;1.30;;;10.30;99.90;;;;;;5007176;28;20180;-86
2022/09/17 04:32:44;;;;;;;1.50;1.10;;;10.30;99.90;;;;;;4997418;28;20210;-86
2022/09/17 04:35:10;;;;;;;1.37;1.27;;;10.30;99.90;;;;;;5001811;28;20196;-86
2022/09/17 04:37:36;;;;;;;2.30;1.23;;;10.30;99.90;;;;;;4998036;28;20187;-86
2022/09/17 04:40:05;;;;;;;2.40;1.43;;;10.30;99.90;;;;;;5000936;28;20178;-86
2022/09/17 04:42:31;;;;;;;2.70;1.47;;;10.30;99.90;;;;;;5015460;28;20185;-86
2022/09/17 04:44:57;;;;;;;3.63;1.20;;;10.30;99.90;;;;;;4986900;28;20216;-86
2022/09/17 04:47:24;;;;;;;4.87;1.50;;;10.30;99.90;;;;;;4981525;28;20179;-86
2022/09/17 04:49:50;;;;;;;1.37;1.27;;;10.30;99.90;;;;;;4986919;28;20179;-86
2022/09/17 04:52:27;;;;;;;1.70;1.60;;;10.30;99.90;;;;;;4999968;28;20298;-86
2022/09/17 04:54:53;;;;;;;2.67;1.23;;;10.20;99.90;;;;;;4996168;28;20249;-86
2022/09/17 04:57:19;;;;;;;2.13;1.50;;;10.20;99.90;;;;;;5004459;28;20180;-86
2022/09/17 04:59:44;;;;;;;2.17;1.40;;;10.20;99.90;;;;;;4997931;28;20175;-86
2022/09/17 05:02:10;;;;;;;2.10;1.50;;;10.20;99.90;;;;;;4984898;28;20225;-86
2022/09/17 05:04:36;;;;;;;2.67;1.80;;;10.20;99.90;;;;;;4986559;28;20206;-86
2022/09/17 05:07:02;;;;;;;2.57;1.80;;;10.10;99.90;;;;;;4981173;28;20182;-86
2022/09/17 05:09:29;;;;;;;1.80;1.60;;;10.10;99.90;;;;;;4980799;28;20266;-86
2022/09/17 05:11:55;;;;;;;3.57;1.53;;;10.00;99.90;;;;;;4995343;28;20270;-86
2022/09/17 05:14:21;;;;;;;1.70;1.60;;;10.00;99.90;;;;;;4991964;28;20289;-86
2022/09/17 05:16:47;;;;;;;1.90;1.63;;;9.90;99.90;;;;;;5011117;28;20228;-86
2022/09/17 05:19:12;;;;;;;3.17;1.97;;;9.80;99.90;;;;;;5007453;28;20177;-87
2022/09/17 05:21:38;;;;;;;3.03;1.80;;;9.80;99.90;;;;;;4992381;28;20316;-86
2022/09/17 05:24:04;;;;;;;2.03;1.77;;;9.80;99.90;;;;;;4997866;28;20186;-86
2022/09/17 05:26:30;;;;;;;1.90;1.80;;;9.80;99.90;;;;;;5012584;28;20170;-86
2022/09/17 05:28:56;;;;;;;1.77;1.40;;;9.80;99.90;;;;;;5020427;28;20186;-86
2022/09/17 05:31:22;;;;;;;3.00;2.10;;;9.80;99.90;;;;;;4980730;28;20664;-86
2022/09/17 05:33:49;;;;;;;2.70;2.17;;;9.80;99.90;;;;;;5014961;28;20168;-86
2022/09/17 05:36:15;;;;;;;3.20;1.73;;;9.90;99.90;;;;;;5003262;28;20199;-88
2022/09/17 05:38:41;;;;;;;3.30;2.10;;;9.90;99.90;;;;;;5010569;28;20206;-86
2022/09/17 05:41:09;;;;;;;2.60;1.80;;;9.90;99.90;;;;;;4994622;28;20193;-86
2022/09/17 05:43:35;;;;;;;4.70;2.40;;;9.90;99.90;;;;;;4986569;28;20189;-85
2022/09/17 05:46:05;;;;;;;5.40;2.30;;;9.90;99.90;;;;;;4990216;28;20223;-86
2022/09/17 05:48:31;;;;;;;2.60;2.10;;;9.90;99.90;;;;;;4983148;28;20187;-86
2022/09/17 05:50:57;;;;;;;2.23;1.83;;;9.90;99.90;;;;;;4999260;28;20655;-87
2022/09/17 05:53:23;;;;;;;1.63;1.53;;;10.00;99.90;;;;;;4999002;28;20229;-86
2022/09/17 05:55:49;;;;;;;2.57;1.83;;;10.00;99.90;;;;;;4998494;28;20200;-86
2022/09/17 05:58:17;;;;;;;2.03;1.80;;;10.00;99.90;;;;;;4999124;28;20190;-86
2022/09/17 06:00:45;;;;;;;2.40;1.70;;;10.00;99.90;;;;;;4986367;28;20179;-86
2022/09/17 06:03:12;;;;;;;2.30;1.43;;;10.00;99.90;;;;;;4988930;28;20175;-86
2022/09/17 06:05:39;;;;;;;3.63;1.70;;;10.00;99.90;;;;;;4996312;28;20191;-86
2022/09/17 06:08:05;;;;;;;2.77;1.73;;;10.00;99.90;;;;;;4981182;28;20236;-86
2022/09/17 06:10:34;;;;;;;2.43;1.73;;;10.00;99.90;;;;;;4996086;28;20175;-86
2022/09/17 06:13:00;;;;;;;2.17;1.60;;;10.00;99.90;;;;;;4996796;28;20249;-87
2022/09/17 06:15:27;;;;;;;2.70;1.77;;;10.00;99.90;;;;;;5005497;28;20191;-87
2022/09/17 06:17:52;;;;;;;2.13;1.93;;;10.00;99.90;;;;;;4991839;28;20175;-87
2022/09/17 06:20:19;;;;;;;2.20;2.00;;;10.00;99.90;;;;;;4990177;28;20196;-87
2022/09/17 06:22:45;;;;;;;5.80;2.10;;;10.00;99.90;;;;;;4996620;28;20182;-89
2022/09/17 06:25:16;;;;;;;2.53;1.30;;;10.00;99.90;;;;;;4998812;28;20348;-89
2022/09/17 06:27:42;;;;;;;2.07;1.60;;;10.10;99.90;;;;;;4981975;28;20246;-89
2022/09/17 06:30:08;;;;;;;2.23;1.70;;;10.10;99.90;;;;;;4982815;28;20302;-89
2022/09/17 06:32:34;;;;;;;3.13;2.07;;;10.20;99.90;;;;;;4998921;28;20199;-89
2022/09/17 06:35:00;;;;;;;2.03;1.60;;;10.20;99.90;;;;;;4991809;28;20198;-90
2022/09/17 06:37:28;;;;;;;2.67;1.90;;;10.30;99.90;;;;;;4999355;28;20217;-90
2022/09/17 06:39:54;;;;;;;2.03;1.60;;;10.30;99.90;;;;;;4998465;28;20174;-90
2022/09/17 06:42:20;;;;;;;2.70;1.50;;;10.40;99.90;;;;;;4996401;28;20183;-89
2022/09/17 06:44:46;;;;;;;1.97;1.60;;;10.60;99.90;;;;;;4987635;28;20211;-89
2022/09/17 06:47:12;;;;;;;4.67;1.67;;;10.60;99.90;;;;;;4985125;28;20183;-90
2022/09/17 06:49:37;;;;;;;2.60;1.47;;;10.70;99.90;;;;;;4979392;28;20167;-90
2022/09/17 06:52:03;;;;;;;3.00;1.50;;;10.80;99.90;;;;;;4981428;28;20227;-90
2022/09/17 06:54:30;;;;;;;2.67;1.40;;;10.80;99.90;;;;;;4984515;28;20216;-90
2022/09/17 06:56:55;;;;;;;3.60;1.53;;;10.90;99.90;;;;;;4992017;28;20170;-90
2022/09/17 06:59:21;;;;;;;3.43;1.67;;;10.90;99.90;;;;;;4996595;28;20201;-89
2022/09/17 07:01:47;;;;;;;2.37;1.40;;;10.90;99.90;;;;;;4999759;28;20182;-89
2022/09/17 07:04:13;;;;;;;4.87;1.60;;;11.00;99.90;;;;;;4999786;28;20179;-90
2022/09/17 07:06:41;;;;;;;1.20;1.10;;;10.90;99.90;;;;;;4992730;28;20181;-89
2022/09/17 07:09:08;;;;;;;3.43;1.40;;;10.90;99.90;;;;;;5002374;28;20183;-89
2022/09/17 07:11:34;;;;;;;2.17;1.40;;;11.00;99.90;;;;;;4986862;28;20215;-89
2022/09/17 07:14:00;;;;;;;4.43;1.63;;;11.00;99.90;;;;;;4992150;28;20266;-90
2022/09/17 07:16:26;;;;;;;3.57;1.37;;;11.10;99.90;;;;;;4985307;28;20180;-90
2022/09/17 07:18:52;;;;;;;3.43;1.30;;;11.20;99.90;;;;;;4997850;28;20181;-89
2022/09/17 07:21:35;;;;;;;4.27;1.40;;;11.20;99.90;;;;;;4989723;28;20193;-89
2022/09/17 07:24:01;;;;;;;3.63;1.40;;;11.30;99.90;;;;;;4999444;28;20274;-89
2022/09/17 07:26:27;;;;;;;5.90;1.30;;;11.30;99.90;;;;;;4990763;28;20192;-89
2022/09/17 07:28:52;;;;;;;3.37;1.50;;;11.30;99.90;;;;;;4993322;28;20185;-89
2022/09/17 07:31:18;;;;;;;2.43;1.07;;;11.30;99.90;;;;;;4993291;28;20785;-87
2022/09/17 07:37:12;;;;;;;3.27;1.43;;;11.30;99.90;;;;;;4999267;28;20184;-88
2022/09/17 07:39:38;;;;;;;4.20;1.43;;;11.20;99.90;;;;;;4999661;28;20177;-87
2022/09/17 07:42:04;;;;;;;4.43;1.60;;;11.20;99.90;;;;;;5014177;28;20177;-88
2022/09/17 07:44:30;;;;;;;5.13;1.77;;;11.10;99.90;;;;;;4982083;28;20255;-89
2022/09/17 07:46:56;;;;;;;3.00;1.40;;;11.10;99.90;;;;;;5000008;28;20175;-87
2022/09/17 07:49:22;;;;;;;3.33;1.70;;;11.00;99.90;;;;;;5017718;28;20186;-87
2022/09/17 07:51:48;;;;;;;3.70;1.43;;;11.00;99.90;;;;;;5002080;28;20206;-86
2022/09/17 07:54:14;;;;;;;2.70;1.40;;;11.00;99.90;;;;;;5001669;28;20203;-87
2022/09/17 07:56:40;;;;;;;4.70;1.43;;;11.00;99.90;;;;;;5001320;28;20180;-87
2022/09/17 07:59:07;;;;;;;4.83;1.60;;;11.00;99.90;;;;;;5007858;28;20176;-87
2022/09/17 08:01:35;;;;;;;2.90;1.20;;;11.00;99.90;;;;;;4998040;28;20186;-86
2022/09/17 08:04:07;;;;;;;4.70;1.40;;;11.10;99.90;;;;;;4985858;28;20180;-87
2022/09/17 08:06:47;;;;;;;3.60;1.73;;;11.10;99.90;;;;;;4987621;28;20189;-86
2022/09/17 08:09:22;;;;;;;2.33;1.47;;;11.10;99.90;;;;;;4997618;28;20242;-86
2022/09/17 08:11:48;;;;;;;3.30;1.70;;;11.10;99.90;;;;;;4990684;28;20208;-87
2022/09/17 08:14:15;;;;;;;3.63;1.60;;;11.10;99.90;;;;;;5005296;28;20195;-87
2022/09/17 08:16:41;;;;;;;3.03;1.30;;;11.10;99.90;;;;;;5000749;28;20264;-86
2022/09/17 08:19:21;;;;;;;3.67;1.60;;;11.20;99.90;;;;;;5001001;28;20572;-86
2022/09/17 08:21:53;;;;;;;4.43;1.73;;;11.20;99.90;;;;;;4997276;28;20184;-86
2022/09/17 08:24:38;;;;;;;3.30;1.60;;;11.20;99.90;;;;;;5000648;28;20211;-86
2022/09/17 08:27:15;;;;;;;2.67;1.63;;;11.30;99.90;;;;;;5015872;28;20192;-87
2022/09/17 08:29:41;;;;;;;3.27;1.30;;;11.30;99.90;;;;;;5000280;28;20183;-86
2022/09/17 08:32:06;;;;;;;2.90;1.30;;;11.40;99.90;;;;;;5001138;28;20217;-86
2022/09/17 08:34:35;;;;;;;2.80;1.30;;;11.40;99.90;;;;;;5024798;28;20193;-89
2022/09/17 08:37:01;;;;;;;9.17;5.43;;;11.60;99.90;;;;;;5002533;28;20538;-78
2022/09/17 08:39:28;;;;;;;2.27;1.10;;;11.70;99.90;;;;;;4982572;28;20188;-87
2022/09/17 08:42:03;;;;;;;3.23;1.00;;;11.80;99.90;;;;;;4996462;28;20547;-86
2022/09/17 08:44:42;;;;;;;4.33;1.20;;;12.00;99.90;;;;;;4979812;28;20208;-86
2022/09/17 08:47:12;;;;;;;1.87;1.00;;;12.00;99.90;;;;;;4997967;28;20272;-86
2022/09/17 08:49:52;;;;;;;3.30;1.20;;;11.90;99.90;;;;;;4998937;28;20184;-86
2022/09/17 08:52:50;;;;;;;2.53;1.30;;;11.80;99.90;;;;;;4998656;28;20212;-86
2022/09/17 08:55:39;;;;;;;2.30;1.10;;;11.80;99.90;;;;;;4998495;28;20271;-86
2022/09/17 08:58:52;;;;;;;1.10;1.00;;;11.80;99.90;;;;;;4998410;28;20188;-86
2022/09/17 09:01:59;;;;;;;1.70;1.10;;;11.80;99.90;;;;;;4998428;28;20189;-86
2022/09/17 09:04:47;;;;;;;3.07;1.13;;;11.80;99.90;;;;;;4998610;28;20211;-86
2022/09/17 09:07:22;;;;;;;1.90;1.00;;;12.00;99.90;;;;;;4998211;28;20187;-86
2022/09/17 09:10:18;;;;;;;4.60;1.40;;;12.10;99.90;;;;;;4998197;28;20187;-86
2022/09/17 09:12:46;;;;;;;3.27;1.73;;;12.20;99.90;;;;;;4989899;28;20221;-86
2022/09/17 09:15:53;;;;;;;1.47;1.07;;;12.30;99.90;;;;;;4997511;28;20211;-86
2022/09/17 09:18:22;;;;;;;4.03;1.37;;;12.50;99.90;;;;;;4919621;29;20200;-86
2022/09/17 09:21:04;;;;;;;1.70;1.10;;;12.70;99.90;;;;;;4982256;28;20197;-86
2022/09/17 09:23:57;;;;;;;3.57;1.10;;;12.90;99.90;;;;;;4996078;28;20178;-87
2022/09/17 09:26:44;;;;;;;2.63;1.20;;;13.00;99.90;;;;;;5001472;28;20178;-87
2022/09/17 09:29:20;;;;;;;4.13;1.80;;;13.00;99.90;;;;;;5000014;28;20219;-86
2022/09/17 09:32:01;;;;;;;3.30;1.50;;;13.00;99.90;;;;;;4996555;28;20209;-87
2022/09/17 09:34:33;;;;;;;48.17;38.17;;;13.00;99.90;;;;;;4991576;28;20271;-86
2022/09/17 09:37:14;;;;;;;9.70;6.63;;;13.10;99.90;;;;;;4987137;28;20190;-86
2022/09/17 09:39:41;;;;;;;4.77;1.80;;;13.40;99.90;;;;;;5003254;28;20179;-86
2022/09/17 09:42:14;;;;;;;3.17;1.40;;;13.50;99.90;;;;;;4983138;28;20183;-86
2022/09/17 09:44:41;;;;;;;7.70;1.63;;;13.50;99.90;;;;;;4999272;28;20218;-86
2022/09/17 09:47:38;;;;;;;3.73;1.47;;;13.60;99.90;;;;;;4989280;28;20247;-86
2022/09/17 09:50:28;;;;;;;5.67;2.23;;;13.60;99.90;;;;;;4983282;28;20191;-86
2022/09/17 09:53:16;;;;;;;4.50;1.63;;;13.70;99.90;;;;;;4990980;28;20209;-86
2022/09/17 09:56:03;;;;;;;6.53;1.63;;;13.70;99.90;;;;;;5005242;28;20203;-86
2022/09/17 09:58:38;;;;;;;4.03;1.30;;;13.60;99.90;;;;;;5014243;28;20189;-86
2022/09/17 10:01:26;;;;;;;7.13;1.83;;;13.60;99.90;;;;;;4998173;28;20263;-86
2022/09/17 10:03:54;;;;;;;6.87;1.77;;;13.60;99.90;;;;;;4998730;28;20187;-86
2022/09/17 10:06:20;;;;;;;4.30;1.77;;;13.60;99.90;;;;;;4999879;28;20206;-86
2022/09/17 10:08:55;;;;;;;4.47;2.07;;;13.60;99.90;;;;;;4999280;28;20192;-86
2022/09/17 10:11:27;;;;;;;2.70;1.40;;;13.60;99.90;;;;;;4999097;28;20220;-86
2022/09/17 10:14:12;;;;;;;7.30;2.03;;;13.60;99.90;;;;;;4999612;28;20220;-86
2022/09/17 10:16:38;;;;;;;6.93;1.57;;;13.70;99.90;;;;;;4995494;28;20179;-86
2022/09/17 10:19:34;;;;;;;6.83;1.47;;;13.80;99.90;;;;;;5010778;28;20182;-86
2022/09/17 10:22:18;;;;;;;4.73;1.47;;;13.90;99.90;;;;;;4997926;28;20196;-84
2022/09/17 10:24:45;;;;;;;6.60;1.63;;;14.00;99.90;;;;;;5025455;28;20351;-84
2022/09/17 10:27:17;;;;;;;5.13;1.50;;;14.10;99.90;;;;;;5004793;28;20178;-83
2022/09/17 10:30:03;;;;;;;6.83;1.87;;;14.20;99.90;;;;;;4996406;28;20175;-83
2022/09/17 10:32:29;;;;;;;7.40;1.70;;;14.30;99.90;;;;;;4972567;28;20250;-83
2022/09/17 10:35:04;;;;;;;5.17;1.47;;;14.30;99.90;;;;;;4998723;28;20243;-83
2022/09/17 10:37:44;;;;;;;3.80;1.40;;;14.30;99.90;;;;;;4990571;28;20178;-83
2022/09/17 10:40:19;;;;;;;2.37;1.20;;;14.30;99.90;;;;;;4999169;28;20261;-83
2022/09/17 10:42:47;;;;;;;8.97;6.83;;;14.40;99.90;;;;;;4999015;28;20200;-83
2022/09/17 10:45:36;;;;;;;5.37;2.13;;;14.70;99.90;;;;;;4980853;28;20301;-84
2022/09/17 10:48:02;;;;;;;5.70;1.40;;;14.90;99.90;;;;;;4979778;28;20241;-83
2022/09/17 10:50:31;;;;;;;4.80;1.50;;;14.90;99.90;;;;;;4981635;28;20187;-83
2022/09/17 10:53:01;;;;;;;3.30;1.37;;;14.80;99.90;;;;;;4991029;28;20218;-83
2022/09/17 10:55:46;;;;;;;2.63;1.10;;;14.40;99.90;;;;;;4983868;28;20218;-83
2022/09/17 10:58:18;;;;;;;4.20;1.40;;;14.30;99.90;;;;;;5001042;28;20195;-83
2022/09/17 11:01:08;;;;;;;3.50;1.70;;;14.40;99.90;;;;;;4993809;28;20194;-83
2022/09/17 11:04:09;;;;;;;4.50;1.57;;;14.60;99.90;;;;;;4990162;28;20179;-84
2022/09/17 11:07:16;;;;;;;3.30;1.03;;;15.00;99.90;;;;;;4995196;28;20186;-84
2022/09/17 11:10:07;;;;;;;3.57;1.30;;;15.20;99.90;;;;;;4999654;28;20175;-84
2022/09/17 11:12:51;;;;;;;3.47;1.30;;;15.40;99.90;;;;;;4994781;28;20265;-84
2022/09/17 11:15:43;;;;;;;7.27;1.40;;;15.70;99.90;;;;;;4986954;28;20191;-85
2022/09/17 11:18:37;;;;;;;2.47;1.00;;;15.60;99.90;;;;;;4993437;28;20171;-84
2022/09/17 11:21:34;;;;;;;2.80;1.07;;;15.60;99.90;;;;;;4994989;28;20170;-84
2022/09/17 11:24:33;;;;;;;6.27;1.20;;;15.60;99.90;;;;;;4985529;28;20195;-84
2022/09/17 11:27:10;;;;;;;4.93;1.23;;;15.50;99.90;;;;;;4959990;28;20214;-84
2022/09/17 11:29:45;;;;;;;3.23;1.20;;;15.40;99.90;;;;;;4985094;28;20206;-84
2022/09/17 11:32:46;;;;;;;2.67;0.97;;;15.30;99.90;;;;;;4996840;28;20198;-85
2022/09/17 11:35:26;;;;;;;1.77;0.90;;;15.10;99.90;;;;;;4982191;28;20198;-87
2022/09/17 11:37:55;;;;;;;2.73;1.17;;;15.00;99.90;;;;;;5012839;28;20179;-86
2022/09/17 11:40:24;;;;;;;7.73;1.50;;;15.20;99.90;;;;;;4995132;28;20552;-87
2022/09/17 11:42:55;;;;;;;2.13;1.00;;;15.10;99.90;;;;;;4997593;28;20187;-86
2022/09/17 11:45:30;;;;;;;2.20;0.80;;;15.00;99.90;;;;;;5000681;28;20248;-86
2022/09/17 11:48:05;;;;;;;3.07;1.20;;;15.20;99.90;;;;;;5000197;28;20224;-86
2022/09/17 11:50:57;;;;;;;2.47;0.93;;;15.40;99.90;;;;;;4997554;28;20195;-86
2022/09/17 11:53:48;;;;;;;2.50;1.17;;;15.50;99.90;;;;;;4991846;28;20188;-86
2022/09/17 11:56:22;;;;;;;3.10;1.20;;;15.50;99.90;;;;;;4986289;28;20199;-86
2022/09/17 11:59:01;;;;;;;3.60;1.20;;;15.50;99.90;;;;;;4981944;28;20194;-85
2022/09/17 12:01:36;;;;;;;2.77;1.10;;;15.50;99.90;;;;;;4998924;28;20184;-85
2022/09/17 12:04:39;;;;;;;1.73;1.03;;;15.30;99.90;;;;;;4998588;28;20187;-86
2022/09/17 12:07:34;;;;;;;4.47;1.40;;;15.20;99.90;;;;;;4998072;28;20214;-86
2022/09/17 12:10:28;;;;;;;4.40;1.30;;;15.20;99.90;;;;;;4983992;28;20211;-86
2022/09/17 12:13:25;;;;;;;2.07;0.90;;;15.20;99.90;;;;;;4989259;28;20302;-85
2022/09/17 12:16:03;;;;;;;3.47;1.20;;;15.10;99.90;;;;;;4997544;28;20195;-86
2022/09/17 12:19:06;;;;;;;1.70;1.07;;;15.40;99.90;;;;;;4994583;28;20194;-86
2022/09/17 12:21:41;;;;;;;3.23;1.03;;;15.30;99.90;;;;;;4984876;28;20207;-86
2022/09/17 12:24:27;;;;;;;2.40;1.23;;;15.20;99.90;;;;;;4992740;28;20174;-86
2022/09/17 12:27:02;;;;;;;3.80;1.10;;;15.20;99.90;;;;;;5001235;28;20167;-86
2022/09/17 12:29:34;;;;;;;2.27;0.90;;;15.30;99.90;;;;;;5001654;28;20171;-85
2022/09/17 12:32:38;;;;;;;2.83;0.97;;;15.50;99.90;;;;;;5001185;28;20217;-86
2022/09/17 12:35:20;;;;;;;3.17;1.07;;;15.40;99.90;;;;;;4984938;28;20291;-86
2022/09/17 12:37:57;;;;;;;2.83;1.20;;;15.30;99.90;;;;;;4981786;28;20260;-86
2022/09/17 12:40:50;;;;;;;2.80;0.90;;;15.30;99.90;;;;;;4981987;28;20182;-86
2022/09/17 12:43:27;;;;;;;1.90;0.93;;;15.10;99.90;;;;;;5012552;28;20285;-85
2022/09/17 12:46:12;;;;;;;2.70;1.30;;;15.10;99.90;;;;;;5012049;28;20689;-86
2022/09/17 12:49:05;;;;;;;2.57;1.10;;;15.00;99.90;;;;;;4989955;28;20207;-86
2022/09/17 12:51:54;;;;;;;2.30;1.00;;;15.10;99.90;;;;;;4991869;28;20202;-86
2022/09/17 12:54:29;;;;;;;4.03;1.13;;;15.10;99.90;;;;;;5002686;28;20306;-85
2022/09/17 12:57:04;;;;;;;2.50;0.90;;;15.30;99.90;;;;;;4996064;28;20178;-85
2022/09/17 12:59:34;;;;;;;2.23;1.10;;;15.20;99.90;;;;;;5000369;28;20515;-84
2022/09/17 13:02:33;;;;;;;3.27;1.23;;;15.20;99.90;;;;;;5020019;28;20194;-84
2022/09/17 13:05:33;;;;;;;3.77;1.00;;;15.10;99.90;;;;;;4976365;28;20221;-83
2022/09/17 13:08:26;;;;;;;3.63;0.93;;;15.00;99.90;;;;;;4999957;28;20183;-83
2022/09/17 13:10:52;;;;;;;3.07;0.97;;;15.00;99.90;;;;;;5003438;28;20190;-83
2022/09/17 13:13:56;;;;;;;1.67;0.90;;;15.10;99.90;;;;;;5014873;28;20209;-85
2022/09/17 13:16:41;;;;;;;2.10;1.10;;;15.10;99.90;;;;;;4965811;28;20217;-85
2022/09/17 13:19:32;;;;;;;3.37;0.93;;;15.00;99.90;;;;;;5014600;28;20206;-85
2022/09/17 13:22:05;;;;;;;2.77;1.13;;;14.80;99.90;;;;;;4998841;28;20179;-85
2022/09/17 13:24:34;;;;;;;2.00;1.40;;;14.60;99.90;;;;;;5012510;28;20293;-85
2022/09/17 13:27:03;;;;;;;3.37;1.77;;;14.50;99.90;;;;;;5004526;28;20179;-85
2022/09/17 13:29:45;;;;;;;4.30;1.10;;;14.30;99.90;;;;;;5001153;28;20238;-85
2022/09/17 13:32:36;;;;;;;2.80;1.30;;;14.10;99.90;;;;;;5002044;28;20212;-85